sensor_id;sensor_type;location;lat;lon;timestamp;pressure;altitude;pressure_sealevel;temperature;humidity
71145;BME280;58812;47.698;17.726;2023-04-02T00:09:22;99347.19;;;8.94;86.37
71145;BME280;58812;47.698;17.726;2023-04-02T00:11:50;99347.66;;;8.89;86.65
71145;BME280;58812;47.698;17.726;2023-04-02T00:14:50;99335.81;;;8.83;87.05
71145;BME280;58812;47.698;17.726;2023-04-02T00:17:17;99348.78;;;8.78;86.67
71145;BME280;58812;47.698;17.726;2023-04-02T00:19:59;99350.75;;;8.76;86.50
71145;BME280;58812;47.698;17.726;2023-04-02T00:22:28;99349.56;;;8.71;86.79
71145;BME280;58812;47.698;17.726;2023-04-02T00:24:56;99347.38;;;8.66;87.40
71145;BME280;58812;47.698;17.726;2023-04-02T00:27:22;99343.00;;;8.65;87.09
71145;BME280;58812;47.698;17.726;2023-04-02T00:29:49;99346.16;;;8.61;87.76
71145;BME280;58812;47.698;17.726;2023-04-02T00:32:25;99351.81;;;8.57;87.75
71145;BME280;58812;47.698;17.726;2023-04-02T00:34:52;99353.97;;;8.54;88.19
71145;BME280;58812;47.698;17.726;2023-04-02T00:37:21;99351.13;;;8.55;88.25
71145;BME280;58812;47.698;17.726;2023-04-02T00:39:49;99345.44;;;8.50;88.50
71145;BME280;58812;47.698;17.726;2023-04-02T00:42:15;99349.38;;;8.46;88.67
71145;BME280;58812;47.698;17.726;2023-04-02T00:44:43;99340.72;;;8.44;88.99
71145;BME280;58812;47.698;17.726;2023-04-02T00:47:34;99346.22;;;8.43;89.11
71145;BME280;58812;47.698;17.726;2023-04-02T00:50:18;99345.50;;;8.41;89.31
71145;BME280;58812;47.698;17.726;2023-04-02T00:52:47;99347.50;;;8.39;89.30
71145;BME280;58812;47.698;17.726;2023-04-02T00:57:47;99345.84;;;8.38;89.77
71145;BME280;58812;47.698;17.726;2023-04-02T01:00:20;99339.78;;;8.36;90.10
71145;BME280;58812;47.698;17.726;2023-04-02T01:06:03;99338.84;;;8.37;90.51
71145;BME280;58812;47.698;17.726;2023-04-02T01:16:51;99336.25;;;8.35;91.80
71145;BME280;58812;47.698;17.726;2023-04-02T01:22:36;99345.84;;;8.38;92.19
71145;BME280;58812;47.698;17.726;2023-04-02T01:25:06;99340.16;;;8.41;91.68
71145;BME280;58812;47.698;17.726;2023-04-02T01:27:50;99347.88;;;8.44;91.96
71145;BME280;58812;47.698;17.726;2023-04-02T01:30:19;99345.59;;;8.49;91.87
71145;BME280;58812;47.698;17.726;2023-04-02T01:32:46;99344.59;;;8.50;92.01
71145;BME280;58812;47.698;17.726;2023-04-02T01:35:12;99349.59;;;8.53;91.94
71145;BME280;58812;47.698;17.726;2023-04-02T01:37:41;99345.97;;;8.54;91.74
71145;BME280;58812;47.698;17.726;2023-04-02T01:40:27;99345.47;;;8.59;91.43
71145;BME280;58812;47.698;17.726;2023-04-02T01:43:15;99338.00;;;8.62;91.44
71145;BME280;58812;47.698;17.726;2023-04-02T01:45:43;99332.66;;;8.62;91.59
71145;BME280;58812;47.698;17.726;2023-04-02T01:48:17;99335.34;;;8.62;91.58
71145;BME280;58812;47.698;17.726;2023-04-02T01:50:44;99335.00;;;8.65;91.13
71145;BME280;58812;47.698;17.726;2023-04-02T01:53:14;99325.34;;;8.64;91.07
71145;BME280;58812;47.698;17.726;2023-04-02T01:55:50;99334.03;;;8.66;91.48
71145;BME280;58812;47.698;17.726;2023-04-02T01:58:36;99330.37;;;8.67;91.33
71145;BME280;58812;47.698;17.726;2023-04-02T02:01:04;99334.03;;;8.66;91.76
71145;BME280;58812;47.698;17.726;2023-04-02T02:03:32;99331.19;;;8.68;91.73
71145;BME280;58812;47.698;17.726;2023-04-02T02:05:58;99335.38;;;8.70;91.38
71145;BME280;58812;47.698;17.726;2023-04-02T02:08:48;99340.41;;;8.73;91.13
71145;BME280;58812;47.698;17.726;2023-04-02T02:11:21;99336.22;;;8.71;91.72
71145;BME280;58812;47.698;17.726;2023-04-02T02:13:54;99338.75;;;8.72;91.32
71145;BME280;58812;47.698;17.726;2023-04-02T02:16:20;99345.75;;;8.73;91.95
71145;BME280;58812;47.698;17.726;2023-04-02T02:18:50;99346.59;;;8.74;92.90
71145;BME280;58812;47.698;17.726;2023-04-02T02:21:26;99339.88;;;8.70;93.60
71145;BME280;58812;47.698;17.726;2023-04-02T02:23:54;99340.72;;;8.70;94.76
71145;BME280;58812;47.698;17.726;2023-04-02T02:26:22;99339.88;;;8.70;94.35
71145;BME280;58812;47.698;17.726;2023-04-02T02:28:52;99342.72;;;8.68;94.09
71145;BME280;58812;47.698;17.726;2023-04-02T02:31:31;99346.37;;;8.67;94.42
71145;BME280;58812;47.698;17.726;2023-04-02T02:34:05;99352.38;;;8.69;93.99
71145;BME280;58812;47.698;17.726;2023-04-02T02:36:41;99347.38;;;8.66;94.04
71145;BME280;58812;47.698;17.726;2023-04-02T02:39:39;99352.84;;;8.65;94.00
71145;BME280;58812;47.698;17.726;2023-04-02T02:42:18;99351.72;;;8.67;93.90
71145;BME280;58812;47.698;17.726;2023-04-02T02:44:50;99348.03;;;8.68;93.55
71145;BME280;58812;47.698;17.726;2023-04-02T02:47:26;99357.72;;;8.69;93.35
71145;BME280;58812;47.698;17.726;2023-04-02T02:49:55;99358.88;;;8.67;93.22
71145;BME280;58812;47.698;17.726;2023-04-02T02:52:25;99363.69;;;8.63;93.20
71145;BME280;58812;47.698;17.726;2023-04-02T02:55:13;99370.03;;;8.62;93.31
71145;BME280;58812;47.698;17.726;2023-04-02T02:57:45;99364.47;;;8.55;93.38
71145;BME280;58812;47.698;17.726;2023-04-02T03:00:12;99362.63;;;8.56;93.40
71145;BME280;58812;47.698;17.726;2023-04-02T03:02:41;99366.59;;;8.52;93.12
71145;BME280;58812;47.698;17.726;2023-04-02T03:05:08;99364.25;;;8.49;93.15
71145;BME280;58812;47.698;17.726;2023-04-02T03:07:34;99369.22;;;8.44;93.36
71145;BME280;58812;47.698;17.726;2023-04-02T03:10:22;99370.22;;;8.43;93.32
71145;BME280;58812;47.698;17.726;2023-04-02T03:13:14;99372.66;;;8.36;94.11
71145;BME280;58812;47.698;17.726;2023-04-02T03:16:18;99371.94;;;8.34;94.41
71145;BME280;58812;47.698;17.726;2023-04-02T03:21:54;99384.44;;;8.34;94.63
71145;BME280;58812;47.698;17.726;2023-04-02T03:24:48;99378.41;;;8.32;94.85
71145;BME280;58812;47.698;17.726;2023-04-02T03:27:23;99381.09;;;8.32;94.41
71145;BME280;58812;47.698;17.726;2023-04-02T03:32:50;99383.37;;;8.26;95.00
71145;BME280;58812;47.698;17.726;2023-04-02T03:35:27;99386.88;;;8.27;95.08
71145;BME280;58812;47.698;17.726;2023-04-02T03:38:15;99388.03;;;8.24;94.98
71145;BME280;58812;47.698;17.726;2023-04-02T03:40:59;99392.81;;;8.21;95.48
71145;BME280;58812;47.698;17.726;2023-04-02T03:43:30;99397.31;;;8.20;95.18
71145;BME280;58812;47.698;17.726;2023-04-02T03:46:07;99390.59;;;8.16;95.14
71145;BME280;58812;47.698;17.726;2023-04-02T03:48:40;99397.22;;;8.12;95.68
71145;BME280;58812;47.698;17.726;2023-04-02T03:51:20;99397.09;;;8.14;95.60
71145;BME280;58812;47.698;17.726;2023-04-02T03:53:48;99398.22;;;8.11;95.63
71145;BME280;58812;47.698;17.726;2023-04-02T03:56:35;99400.22;;;8.09;95.44
71145;BME280;58812;47.698;17.726;2023-04-02T04:05:42;99406.69;;;8.07;95.42
71145;BME280;58812;47.698;17.726;2023-04-02T04:08:05;99409.50;;;8.05;95.89
71145;BME280;58812;47.698;17.726;2023-04-02T04:10:33;99409.19;;;8.08;95.48
71145;BME280;58812;47.698;17.726;2023-04-02T04:13:11;99417.72;;;8.12;95.44
71145;BME280;58812;47.698;17.726;2023-04-02T04:16:02;99413.22;;;8.12;95.79
71145;BME280;58812;47.698;17.726;2023-04-02T04:21:22;99428.25;;;8.13;96.40
71145;BME280;58812;47.698;17.726;2023-04-02T04:23:56;99434.41;;;8.14;96.62
71145;BME280;58812;47.698;17.726;2023-04-02T04:29:30;99439.75;;;8.14;96.54
71145;BME280;58812;47.698;17.726;2023-04-02T04:32:20;99438.59;;;8.16;95.75
71145;BME280;58812;47.698;17.726;2023-04-02T04:34:55;99436.31;;;8.21;95.84
71145;BME280;58812;47.698;17.726;2023-04-02T04:37:25;99455.38;;;8.26;95.81
71145;BME280;58812;47.698;17.726;2023-04-02T04:40:31;99451.53;;;8.29;95.34
71145;BME280;58812;47.698;17.726;2023-04-02T04:42:52;99454.75;;;8.33;95.10
71145;BME280;58812;47.698;17.726;2023-04-02T04:48:07;99465.63;;;8.49;94.42
71145;BME280;58812;47.698;17.726;2023-04-02T04:51:30;99465.69;;;8.57;93.79
71145;BME280;58812;47.698;17.726;2023-04-02T04:53:59;99469.94;;;8.86;92.70
71145;BME280;58812;47.698;17.726;2023-04-02T04:56:27;99468.84;;;8.96;92.64
71145;BME280;58812;47.698;17.726;2023-04-02T04:59:04;99472.28;;;8.89;92.59
71145;BME280;58812;47.698;17.726;2023-04-02T05:01:42;99474.81;;;8.90;92.34
71145;BME280;58812;47.698;17.726;2023-04-02T05:04:18;99468.25;;;8.85;92.17
71145;BME280;58812;47.698;17.726;2023-04-02T05:07:04;99472.22;;;8.80;91.89
71145;BME280;58812;47.698;17.726;2023-04-02T05:09:39;99463.91;;;8.83;91.99
71145;BME280;58812;47.698;17.726;2023-04-02T05:14:57;99467.94;;;8.88;92.21
71145;BME280;58812;47.698;17.726;2023-04-02T05:17:35;99475.94;;;8.88;92.40
71145;BME280;58812;47.698;17.726;2023-04-02T05:20:14;99473.66;;;8.93;92.00
71145;BME280;58812;47.698;17.726;2023-04-02T05:22:50;99482.31;;;8.95;91.57
71145;BME280;58812;47.698;17.726;2023-04-02T05:28:11;99481.41;;;9.04;91.64
71145;BME280;58812;47.698;17.726;2023-04-02T05:30:54;99487.50;;;9.14;90.79
71145;BME280;58812;47.698;17.726;2023-04-02T05:33:29;99479.84;;;9.19;90.51
71145;BME280;58812;47.698;17.726;2023-04-02T05:36:24;99484.69;;;9.24;90.63
71145;BME280;58812;47.698;17.726;2023-04-02T05:38:52;99486.06;;;9.28;90.46
71145;BME280;58812;47.698;17.726;2023-04-02T05:41:33;99485.28;;;9.35;90.71
71145;BME280;58812;47.698;17.726;2023-04-02T05:44:05;99487.12;;;9.35;89.60
71145;BME280;58812;47.698;17.726;2023-04-02T05:46:39;99482.97;;;9.41;89.43
71145;BME280;58812;47.698;17.726;2023-04-02T05:49:15;99485.28;;;9.35;89.94
71145;BME280;58812;47.698;17.726;2023-04-02T05:51:45;99485.97;;;9.38;89.63
71145;BME280;58812;47.698;17.726;2023-04-02T05:54:47;99489.16;;;9.41;90.13
71145;BME280;58812;47.698;17.726;2023-04-02T05:57:19;99494.00;;;9.38;90.25
71145;BME280;58812;47.698;17.726;2023-04-02T05:59:51;99488.84;;;9.44;90.62
71145;BME280;58812;47.698;17.726;2023-04-02T06:02:23;99495.81;;;9.71;91.16
71145;BME280;58812;47.698;17.726;2023-04-02T06:07:21;99495.19;;;9.77;88.69
71145;BME280;58812;47.698;17.726;2023-04-02T06:09:48;99501.25;;;9.87;89.05
71145;BME280;58812;47.698;17.726;2023-04-02T06:12:23;99508.91;;;9.82;88.98
71145;BME280;58812;47.698;17.726;2023-04-02T06:14:51;99509.44;;;9.86;88.77
71145;BME280;58812;47.698;17.726;2023-04-02T06:17:18;99501.81;;;9.99;88.96
71145;BME280;58812;47.698;17.726;2023-04-02T06:19:45;99513.06;;;10.86;85.65
71145;BME280;58812;47.698;17.726;2023-04-02T06:22:22;99514.38;;;10.57;84.90
71145;BME280;58812;47.698;17.726;2023-04-02T06:24:56;99515.56;;;10.79;86.16
71145;BME280;58812;47.698;17.726;2023-04-02T06:27:23;99521.87;;;10.54;87.39
71145;BME280;58812;47.698;17.726;2023-04-02T06:29:52;99520.87;;;10.55;87.85
71145;BME280;58812;47.698;17.726;2023-04-02T06:32:22;99520.50;;;10.41;89.00
71145;BME280;58812;47.698;17.726;2023-04-02T06:34:50;99529.19;;;10.27;90.06
71145;BME280;58812;47.698;17.726;2023-04-02T06:39:56;99529.09;;;10.69;88.79
71145;BME280;58812;47.698;17.726;2023-04-02T06:42:25;99526.44;;;11.35;87.15
71145;BME280;58812;47.698;17.726;2023-04-02T06:44:52;99533.97;;;10.99;86.79
71145;BME280;58812;47.698;17.726;2023-04-02T06:47:25;99533.94;;;10.58;87.80
71145;BME280;58812;47.698;17.726;2023-04-02T06:50:07;99532.25;;;10.73;89.14
71145;BME280;58812;47.698;17.726;2023-04-02T06:52:43;99552.34;;;10.77;87.92
71145;BME280;58812;47.698;17.726;2023-04-02T06:58:20;99550.22;;;11.21;87.10
71145;BME280;58812;47.698;17.726;2023-04-02T07:00:47;99543.97;;;10.72;87.35
71145;BME280;58812;47.698;17.726;2023-04-02T07:03:16;99549.72;;;10.85;89.00
71145;BME280;58812;47.698;17.726;2023-04-02T07:05:44;99550.34;;;10.71;89.85
71145;BME280;58812;47.698;17.726;2023-04-02T07:08:09;99547.50;;;10.73;89.34
71145;BME280;58812;47.698;17.726;2023-04-02T07:10:35;99547.31;;;10.58;90.03
71145;BME280;58812;47.698;17.726;2023-04-02T07:13:01;99553.84;;;10.63;89.35
71145;BME280;58812;47.698;17.726;2023-04-02T07:15:27;99557.72;;;10.69;89.31
71145;BME280;58812;47.698;17.726;2023-04-02T07:17:53;99555.69;;;10.71;89.74
71145;BME280;58812;47.698;17.726;2023-04-02T07:20:31;99555.03;;;10.69;89.31
71145;BME280;58812;47.698;17.726;2023-04-02T07:22:57;99556.41;;;11.06;88.13
71145;BME280;58812;47.698;17.726;2023-04-02T07:25:24;99561.06;;;11.69;87.19
71145;BME280;58812;47.698;17.726;2023-04-02T07:27:50;99567.25;;;11.61;85.19
71145;BME280;58812;47.698;17.726;2023-04-02T07:30:16;99564.56;;;11.69;84.97
71145;BME280;58812;47.698;17.726;2023-04-02T07:32:42;99560.59;;;12.13;83.59
71145;BME280;58812;47.698;17.726;2023-04-02T07:35:08;99560.72;;;12.59;80.99
71145;BME280;58812;47.698;17.726;2023-04-02T07:37:34;99552.13;;;12.32;81.95
71145;BME280;58812;47.698;17.726;2023-04-02T07:40:00;99561.44;;;12.52;79.47
71145;BME280;58812;47.698;17.726;2023-04-02T07:42:25;99576.81;;;13.13;76.69
71145;BME280;58812;47.698;17.726;2023-04-02T07:44:51;99573.44;;;12.65;77.91
71145;BME280;58812;47.698;17.726;2023-04-02T07:47:16;99578.31;;;12.30;79.43
71145;BME280;58812;47.698;17.726;2023-04-02T07:49:42;99582.34;;;12.26;79.22
71145;BME280;58812;47.698;17.726;2023-04-02T07:52:07;99578.12;;;11.84;80.85
71145;BME280;58812;47.698;17.726;2023-04-02T07:54:33;99587.16;;;11.99;80.84
71145;BME280;58812;47.698;17.726;2023-04-02T07:57:00;99571.75;;;11.93;81.39
71145;BME280;58812;47.698;17.726;2023-04-02T07:59:25;99582.16;;;11.72;82.46
71145;BME280;58812;47.698;17.726;2023-04-02T08:01:51;99579.78;;;11.93;81.48
71145;BME280;58812;47.698;17.726;2023-04-02T08:04:19;99587.78;;;12.80;79.52
71145;BME280;58812;47.698;17.726;2023-04-02T08:06:45;99591.69;;;13.00;78.46
71145;BME280;58812;47.698;17.726;2023-04-02T08:09:12;99592.53;;;12.39;79.94
71145;BME280;58812;47.698;17.726;2023-04-02T08:11:37;99594.66;;;12.51;79.56
71145;BME280;58812;47.698;17.726;2023-04-02T08:14:03;99590.13;;;12.52;79.36
71145;BME280;58812;47.698;17.726;2023-04-02T08:16:51;99590.03;;;12.37;79.43
71145;BME280;58812;47.698;17.726;2023-04-02T08:19:18;99588.91;;;12.23;80.72
71145;BME280;58812;47.698;17.726;2023-04-02T08:21:43;99598.69;;;12.08;80.91
71145;BME280;58812;47.698;17.726;2023-04-02T08:24:09;99592.16;;;12.11;80.63
71145;BME280;58812;47.698;17.726;2023-04-02T08:26:35;99594.63;;;12.60;78.53
71145;BME280;58812;47.698;17.726;2023-04-02T08:29:00;99596.28;;;13.75;74.38
71145;BME280;58812;47.698;17.726;2023-04-02T08:31:26;99587.84;;;13.93;74.00
71145;BME280;58812;47.698;17.726;2023-04-02T08:33:51;99591.84;;;14.27;72.84
71145;BME280;58812;47.698;17.726;2023-04-02T08:36:18;99608.72;;;13.91;72.42
71145;BME280;58812;47.698;17.726;2023-04-02T08:38:44;99595.88;;;13.26;73.90
71145;BME280;58812;47.698;17.726;2023-04-02T08:41:28;99597.47;;;13.73;74.07
71145;BME280;58812;47.698;17.726;2023-04-02T08:44:18;99601.12;;;13.42;75.60
71145;BME280;58812;47.698;17.726;2023-04-02T08:46:48;99594.88;;;12.73;78.32
71145;BME280;58812;47.698;17.726;2023-04-02T08:49:19;99610.81;;;11.88;82.09
71145;BME280;58812;47.698;17.726;2023-04-02T08:51:47;99618.16;;;12.02;81.28
71145;BME280;58812;47.698;17.726;2023-04-02T08:54:30;99615.78;;;12.07;81.20
71145;BME280;58812;47.698;17.726;2023-04-02T08:59:43;99616.03;;;12.37;81.37
71145;BME280;58812;47.698;17.726;2023-04-02T09:04:38;99620.13;;;12.08;81.53
71145;BME280;58812;47.698;17.726;2023-04-02T09:07:05;99630.41;;;11.96;81.64
71145;BME280;58812;47.698;17.726;2023-04-02T09:09:36;99626.81;;;12.28;80.84
71145;BME280;58812;47.698;17.726;2023-04-02T09:12:03;99624.16;;;13.14;78.61
71145;BME280;58812;47.698;17.726;2023-04-02T09:17:03;99643.22;;;12.73;78.16
71145;BME280;58812;47.698;17.726;2023-04-02T09:19:42;99636.50;;;12.69;78.85
71145;BME280;58812;47.698;17.726;2023-04-02T09:22:29;99640.53;;;12.73;78.60
71145;BME280;58812;47.698;17.726;2023-04-02T09:25:01;99636.69;;;12.98;79.02
71145;BME280;58812;47.698;17.726;2023-04-02T09:27:30;99640.13;;;13.38;77.49
71145;BME280;58812;47.698;17.726;2023-04-02T09:33:04;99645.66;;;13.14;77.22
71145;BME280;58812;47.698;17.726;2023-04-02T09:35:52;99649.25;;;13.06;76.71
71145;BME280;58812;47.698;17.726;2023-04-02T09:38:26;99649.44;;;13.50;75.83
71145;BME280;58812;47.698;17.726;2023-04-02T09:41:00;99661.62;;;13.61;74.34
71145;BME280;58812;47.698;17.726;2023-04-02T09:43:34;99661.44;;;13.62;74.09
71145;BME280;58812;47.698;17.726;2023-04-02T09:48:43;99664.22;;;13.54;74.21
71145;BME280;58812;47.698;17.726;2023-04-02T09:51:18;99674.72;;;14.16;71.85
71145;BME280;58812;47.698;17.726;2023-04-02T09:56:21;99674.41;;;13.82;72.80
71145;BME280;58812;47.698;17.726;2023-04-02T10:01:59;99673.22;;;13.99;74.24
71145;BME280;58812;47.698;17.726;2023-04-02T10:04:39;99666.72;;;13.33;76.85
71145;BME280;58812;47.698;17.726;2023-04-02T10:10:02;99669.81;;;13.68;74.82
71145;BME280;58812;47.698;17.726;2023-04-02T10:12:34;99667.94;;;13.30;77.33
71145;BME280;58812;47.698;17.726;2023-04-02T10:15:03;99666.25;;;13.29;75.88
71145;BME280;58812;47.698;17.726;2023-04-02T10:17:31;99664.81;;;13.65;74.35
71145;BME280;58812;47.698;17.726;2023-04-02T10:20:21;99660.69;;;13.92;73.09
71145;BME280;58812;47.698;17.726;2023-04-02T10:22:48;99671.19;;;15.47;67.66
71145;BME280;58812;47.698;17.726;2023-04-02T10:25:14;99665.13;;;14.66;69.29
71145;BME280;58812;47.698;17.726;2023-04-02T10:28:24;99667.44;;;14.69;70.14
71145;BME280;58812;47.698;17.726;2023-04-02T10:30:57;99669.84;;;15.15;69.11
71145;BME280;58812;47.698;17.726;2023-04-02T10:33:32;99665.44;;;14.93;70.41
71145;BME280;58812;47.698;17.726;2023-04-02T10:39:06;99658.63;;;13.41;74.15
71145;BME280;58812;47.698;17.726;2023-04-02T10:41:51;99659.88;;;13.53;73.11
71145;BME280;58812;47.698;17.726;2023-04-02T10:45:05;99667.06;;;14.43;71.56
71145;BME280;58812;47.698;17.726;2023-04-02T10:50:22;99679.09;;;15.28;66.10
71145;BME280;58812;47.698;17.726;2023-04-02T10:55:36;99675.31;;;14.86;67.25
71145;BME280;58812;47.698;17.726;2023-04-02T10:58:16;99671.03;;;14.32;68.02
71145;BME280;58812;47.698;17.726;2023-04-02T11:00:45;99671.91;;;15.35;65.16
71145;BME280;58812;47.698;17.726;2023-04-02T11:03:33;99674.78;;;15.97;64.56
71145;BME280;58812;47.698;17.726;2023-04-02T11:06:23;99671.69;;;16.28;62.85
71145;BME280;58812;47.698;17.726;2023-04-02T11:08:51;99671.13;;;14.83;66.50
71145;BME280;58812;47.698;17.726;2023-04-02T11:11:21;99676.81;;;14.74;67.43
71145;BME280;58812;47.698;17.726;2023-04-02T11:13:57;99667.50;;;14.02;69.44
71145;BME280;58812;47.698;17.726;2023-04-02T11:16:24;99679.53;;;14.59;69.13
71145;BME280;58812;47.698;17.726;2023-04-02T11:21:41;99677.56;;;15.40;66.38
71145;BME280;58812;47.698;17.726;2023-04-02T11:37:33;99668.66;;;14.52;67.53
71145;BME280;58812;47.698;17.726;2023-04-02T11:42:47;99661.19;;;14.25;68.42
71145;BME280;58812;47.698;17.726;2023-04-02T11:50:42;99660.09;;;13.81;68.38
71145;BME280;58812;47.698;17.726;2023-04-02T11:55:46;99668.38;;;13.57;69.54
71145;BME280;58812;47.698;17.726;2023-04-02T11:58:57;99663.28;;;13.47;69.75
71145;BME280;58812;47.698;17.726;2023-04-02T12:06:54;99672.13;;;14.97;68.15
71145;BME280;58812;47.698;17.726;2023-04-02T12:11:54;99674.63;;;16.34;61.26
71145;BME280;58812;47.698;17.726;2023-04-02T12:17:41;99668.72;;;15.25;64.44
71145;BME280;58812;47.698;17.726;2023-04-02T12:22:37;99679.22;;;15.19;62.29
71145;BME280;58812;47.698;17.726;2023-04-02T12:25:30;99673.06;;;15.47;62.09
71145;BME280;58812;47.698;17.726;2023-04-02T12:28:23;99678.53;;;15.96;60.86
71145;BME280;58812;47.698;17.726;2023-04-02T12:30:50;99672.47;;;16.22;60.90
71145;BME280;58812;47.698;17.726;2023-04-02T12:35:46;99670.63;;;15.31;64.08
71145;BME280;58812;47.698;17.726;2023-04-02T12:38:23;99664.94;;;15.04;65.55
71145;BME280;58812;47.698;17.726;2023-04-02T12:40:56;99666.37;;;13.97;70.75
71145;BME280;58812;47.698;17.726;2023-04-02T12:43:29;99666.25;;;13.29;73.71
71145;BME280;58812;47.698;17.726;2023-04-02T12:46:01;99672.53;;;13.14;75.23
71145;BME280;58812;47.698;17.726;2023-04-02T12:48:28;99662.19;;;13.02;76.82
71145;BME280;58812;47.698;17.726;2023-04-02T12:50:56;99664.78;;;13.19;77.39
71145;BME280;58812;47.698;17.726;2023-04-02T12:53:25;99667.47;;;13.19;77.09
71145;BME280;58812;47.698;17.726;2023-04-02T12:55:53;99669.91;;;13.36;77.66
71145;BME280;58812;47.698;17.726;2023-04-02T12:58:39;99671.03;;;13.42;77.50
71145;BME280;58812;47.698;17.726;2023-04-02T13:01:20;99664.22;;;13.54;76.64
71145;BME280;58812;47.698;17.726;2023-04-02T13:04:07;99682.13;;;13.39;76.39
71145;BME280;58812;47.698;17.726;2023-04-02T13:06:34;99679.41;;;13.47;76.98
71145;BME280;58812;47.698;17.726;2023-04-02T13:09:03;99683.38;;;12.97;78.01
71145;BME280;58812;47.698;17.726;2023-04-02T13:11:34;99679.91;;;12.89;76.59
71145;BME280;58812;47.698;17.726;2023-04-02T13:14:02;99679.41;;;12.85;76.28
71145;BME280;58812;47.698;17.726;2023-04-02T13:16:34;99690.91;;;12.71;77.89
71145;BME280;58812;47.698;17.726;2023-04-02T13:19:10;99689.88;;;12.72;79.02
71145;BME280;58812;47.698;17.726;2023-04-02T13:21:36;99683.81;;;12.78;78.75
71145;BME280;58812;47.698;17.726;2023-04-02T13:24:01;99683.69;;;12.71;78.37
71145;BME280;58812;47.698;17.726;2023-04-02T13:26:28;99683.47;;;12.81;76.82
71145;BME280;58812;47.698;17.726;2023-04-02T13:29:17;99692.75;;;12.70;78.41
71145;BME280;58812;47.698;17.726;2023-04-02T13:31:43;99688.06;;;12.64;78.99
71145;BME280;58812;47.698;17.726;2023-04-02T13:34:09;99693.84;;;12.84;78.22
71145;BME280;58812;47.698;17.726;2023-04-02T13:36:35;99707.25;;;12.92;79.66
71145;BME280;58812;47.698;17.726;2023-04-02T13:39:01;99709.00;;;12.29;77.16
71145;BME280;58812;47.698;17.726;2023-04-02T13:41:29;99719.91;;;12.12;81.77
71145;BME280;58812;47.698;17.726;2023-04-02T13:43:57;99728.31;;;11.84;89.18
71145;BME280;58812;47.698;17.726;2023-04-02T13:46:29;99728.25;;;11.27;92.92
71145;BME280;58812;47.698;17.726;2023-04-02T13:48:55;99728.03;;;11.12;96.62
71145;BME280;58812;47.698;17.726;2023-04-02T13:51:30;99723.50;;;11.13;97.73
71145;BME280;58812;47.698;17.726;2023-04-02T13:53:58;99733.38;;;11.04;97.68
71145;BME280;58812;47.698;17.726;2023-04-02T13:56:24;99722.22;;;10.75;97.71
71145;BME280;58812;47.698;17.726;2023-04-02T13:58:52;99724.91;;;10.49;100.00
71145;BME280;58812;47.698;17.726;2023-04-02T14:01:19;99729.47;;;10.56;100.00
71145;BME280;58812;47.698;17.726;2023-04-02T14:03:48;99723.12;;;10.31;100.00
71145;BME280;58812;47.698;17.726;2023-04-02T14:24:39;99724.88;;;10.40;100.00
71145;BME280;58812;47.698;17.726;2023-04-02T14:27:20;99725.59;;;10.51;100.00
71145;BME280;58812;47.698;17.726;2023-04-02T14:30:14;99729.28;;;10.50;100.00
71145;BME280;58812;47.698;17.726;2023-04-02T14:32:51;99730.12;;;10.24;100.00
71145;BME280;58812;47.698;17.726;2023-04-02T14:40:51;99742.66;;;10.24;100.00
71145;BME280;58812;47.698;17.726;2023-04-02T14:43:35;99736.31;;;10.25;100.00
71145;BME280;58812;47.698;17.726;2023-04-02T14:46:07;99729.88;;;10.17;100.00
71145;BME280;58812;47.698;17.726;2023-04-02T14:48:54;99739.56;;;10.36;100.00
71145;BME280;58812;47.698;17.726;2023-04-02T14:54:15;99744.78;;;10.20;100.00
71145;BME280;58812;47.698;17.726;2023-04-02T14:56:48;99744.59;;;10.39;100.00
71145;BME280;58812;47.698;17.726;2023-04-02T14:59:31;99751.72;;;10.57;100.00
71145;BME280;58812;47.698;17.726;2023-04-02T15:02:38;99745.78;;;10.71;100.00
71145;BME280;58812;47.698;17.726;2023-04-02T15:05:32;99752.69;;;11.32;100.00
71145;BME280;58812;47.698;17.726;2023-04-02T15:08:23;99749.19;;;11.48;100.00
71145;BME280;58812;47.698;17.726;2023-04-02T15:13:24;99766.47;;;11.45;93.61
71145;BME280;58812;47.698;17.726;2023-04-02T15:15:54;99763.75;;;11.37;89.98
71145;BME280;58812;47.698;17.726;2023-04-02T15:18:21;99771.75;;;11.21;88.43
71145;BME280;58812;47.698;17.726;2023-04-02T15:26:11;99797.53;;;10.80;85.99
71145;BME280;58812;47.698;17.726;2023-04-02T15:31:33;99804.97;;;11.02;82.12
71145;BME280;58812;47.698;17.726;2023-04-02T15:34:24;99812.06;;;11.11;81.75
71145;BME280;58812;47.698;17.726;2023-04-02T15:42:20;99825.25;;;10.70;73.87
71145;BME280;58812;47.698;17.726;2023-04-02T15:59:11;99864.41;;;9.92;66.47
71145;BME280;58812;47.698;17.726;2023-04-02T16:05:06;99868.16;;;9.54;66.33
71145;BME280;58812;47.698;17.726;2023-04-02T16:07:50;99889.63;;;9.34;66.97
71145;BME280;58812;47.698;17.726;2023-04-02T16:10:25;99900.81;;;9.20;66.83
71145;BME280;58812;47.698;17.726;2023-04-02T16:12:54;99893.56;;;9.03;67.53
71145;BME280;58812;47.698;17.726;2023-04-02T16:15:37;99899.63;;;8.95;68.06
71145;BME280;58812;47.698;17.726;2023-04-02T16:21:16;99911.06;;;8.68;68.89
71145;BME280;58812;47.698;17.726;2023-04-02T16:23:43;99928.66;;;8.61;69.99
71145;BME280;58812;47.698;17.726;2023-04-02T16:26:32;99920.25;;;8.37;70.60
71145;BME280;58812;47.698;17.726;2023-04-02T16:32:42;99945.59;;;8.02;71.08
71145;BME280;58812;47.698;17.726;2023-04-02T16:44:03;99966.22;;;7.29;73.35
71145;BME280;58812;47.698;17.726;2023-04-02T16:49:22;99973.72;;;7.14;74.70
71145;BME280;58812;47.698;17.726;2023-04-02T17:04:57;100016.16;;;6.53;76.14
71145;BME280;58812;47.698;17.726;2023-04-02T17:10:25;100031.69;;;6.37;76.47
71145;BME280;58812;47.698;17.726;2023-04-02T17:16:18;100050.06;;;6.29;76.53
71145;BME280;58812;47.698;17.726;2023-04-02T17:18:50;100061.22;;;6.23;76.87